createdAt,value
2018-11-02T00:00:05.251Z,74.80
2018-11-02T00:02:32.720Z,74.44
2018-11-02T00:05:00.213Z,74.13
2018-11-02T00:07:27.651Z,74.01
2018-11-02T00:09:55.111Z,73.97
2018-11-02T00:12:22.621Z,73.70
2018-11-02T00:14:50.015Z,73.57
2018-11-02T00:17:17.617Z,73.74
2018-11-02T00:19:45.064Z,73.82
2018-11-02T00:22:12.512Z,73.93
2018-11-02T00:24:39.970Z,73.94
2018-11-02T00:27:07.658Z,73.67
2018-11-02T00:29:35.640Z,73.54
2018-11-02T00:32:03.117Z,73.48
2018-11-02T00:34:30.535Z,73.60
2018-11-02T00:36:57.978Z,73.72
2018-11-02T00:39:25.438Z,73.72
2018-11-02T00:41:53.146Z,73.69
2018-11-02T00:44:20.572Z,73.76
2018-11-02T00:46:48.035Z,74.15
2018-11-02T00:49:15.487Z,74.28
2018-11-02T00:51:42.944Z,74.36
2018-11-02T00:54:10.395Z,74.20
2018-11-02T00:56:37.860Z,73.98
2018-11-02T00:59:05.333Z,73.51
2018-11-02T01:01:33.003Z,73.69
2018-11-02T01:04:00.457Z,73.90
2018-11-02T01:06:27.948Z,73.96
2018-11-02T01:08:55.409Z,73.89
2018-11-02T01:11:22.917Z,74.00
2018-11-02T01:13:50.363Z,73.91
2018-11-02T01:16:17.811Z,73.61
2018-11-02T01:18:45.248Z,73.59
2018-11-02T01:21:12.701Z,73.72
2018-11-02T01:23:40.149Z,73.88
2018-11-02T01:26:07.619Z,73.93
2018-11-02T01:28:35.061Z,73.72
2018-11-02T01:31:02.555Z,73.63
2018-11-02T01:33:30.032Z,73.53
2018-11-02T01:35:57.637Z,73.42
2018-11-02T01:38:25.083Z,73.42
2018-11-02T01:40:52.554Z,73.41
2018-11-02T01:43:20.222Z,73.50
2018-11-02T01:45:47.708Z,73.66
2018-11-02T01:48:15.148Z,73.70
2018-11-02T01:50:42.613Z,73.65
2018-11-02T01:53:10.086Z,73.70
2018-11-02T01:55:37.559Z,73.63
2018-11-02T01:58:05.008Z,73.55
2018-11-02T02:00:32.459Z,73.36
2018-11-02T02:02:59.926Z,73.09
2018-11-02T02:05:27.381Z,73.18
2018-11-02T02:07:54.818Z,73.24
2018-11-02T02:10:22.296Z,73.37
2018-11-02T02:12:49.719Z,73.49
2018-11-02T02:15:17.187Z,73.22
2018-11-02T02:17:44.865Z,73.36
2018-11-02T02:20:12.328Z,73.29
2018-11-02T02:22:39.804Z,73.17
2018-11-02T02:25:07.245Z,73.05
2018-11-02T02:27:34.769Z,72.84
2018-11-02T02:30:02.422Z,73.22
2018-11-02T02:32:29.880Z,73.42
2018-11-02T02:34:57.328Z,73.28
2018-11-02T02:37:24.975Z,73.17
2018-11-02T02:39:52.461Z,73.37
2018-11-02T02:42:19.888Z,73.76
2018-11-02T02:44:47.325Z,74.31
2018-11-02T02:47:14.785Z,74.79
2018-11-02T02:49:42.271Z,75.20
2018-11-02T02:52:09.735Z,75.69
2018-11-02T02:54:37.199Z,75.94
2018-11-02T02:57:04.630Z,76.13
2018-11-02T02:59:32.089Z,76.33
2018-11-02T03:01:59.710Z,76.25
2018-11-02T03:04:27.154Z,76.05
2018-11-02T03:06:54.599Z,76.08
2018-11-02T03:09:22.115Z,76.18
2018-11-02T03:11:49.547Z,76.32
2018-11-02T03:14:17.020Z,76.42
2018-11-02T03:16:44.451Z,76.67
2018-11-02T03:19:11.938Z,77.08
2018-11-02T03:21:39.403Z,77.43
2018-11-02T03:24:06.858Z,77.62
2018-11-02T03:26:34.308Z,77.81
2018-11-02T03:29:01.815Z,77.99
2018-11-02T03:31:29.255Z,78.05
2018-11-02T03:33:56.697Z,78.02
2018-11-02T03:36:24.162Z,77.95
2018-11-02T03:38:51.626Z,77.98
2018-11-02T03:41:19.075Z,77.78
2018-11-02T03:43:46.510Z,77.69
2018-11-02T03:46:13.946Z,77.64
2018-11-02T03:48:41.448Z,77.49
2018-11-02T03:51:08.948Z,77.31
2018-11-02T03:53:36.395Z,77.41
2018-11-02T03:56:04.513Z,77.67
2018-11-02T03:58:31.979Z,77.97
2018-11-02T04:00:59.445Z,78.16
2018-11-02T04:03:27.341Z,78.58
2018-11-02T04:05:54.816Z,78.62
2018-11-02T04:08:22.269Z,78.54
2018-11-02T04:10:49.727Z,78.47
2018-11-02T04:13:17.196Z,78.18
2018-11-02T04:15:44.642Z,77.99
2018-11-02T04:18:12.084Z,77.90
2018-11-02T04:20:39.514Z,77.81
2018-11-02T04:23:06.968Z,78.09
2018-11-02T04:25:34.450Z,78.53
2018-11-02T04:28:01.941Z,78.57
2018-11-02T04:30:29.397Z,78.47
2018-11-02T04:32:56.855Z,78.54
2018-11-02T04:35:24.302Z,78.58
2018-11-02T04:37:51.762Z,78.61
2018-11-02T04:40:19.215Z,78.62
2018-11-02T04:42:46.679Z,78.84
2018-11-02T04:45:14.128Z,79.22
2018-11-02T04:47:41.622Z,79.47
2018-11-02T04:50:09.069Z,79.61
2018-11-02T04:52:36.527Z,79.99
2018-11-02T04:55:04.034Z,80.04
2018-11-02T04:57:31.481Z,79.93
2018-11-02T04:59:58.960Z,79.54
2018-11-02T05:02:26.467Z,79.14
2018-11-02T05:04:53.922Z,78.67
2018-11-02T05:07:21.393Z,78.56
2018-11-02T05:09:48.907Z,78.61
2018-11-02T05:12:16.288Z,78.77
2018-11-02T05:14:43.790Z,78.73
2018-11-02T05:17:11.479Z,78.56
2018-11-02T05:19:38.943Z,78.47
2018-11-02T05:22:06.385Z,78.43
2018-11-02T05:24:33.827Z,78.46
2018-11-02T05:27:01.305Z,78.62
2018-11-02T05:29:28.780Z,79.02
2018-11-02T05:31:56.255Z,79.06
2018-11-02T05:34:23.771Z,79.12
2018-11-02T05:36:51.231Z,79.36
2018-11-02T05:39:18.724Z,79.36
2018-11-02T05:41:46.136Z,79.40
2018-11-02T05:44:13.595Z,79.09
2018-11-02T05:46:41.041Z,78.99
2018-11-02T05:49:08.516Z,79.23
2018-11-02T05:51:35.969Z,79.37
2018-11-02T05:54:03.510Z,79.22
2018-11-02T05:56:30.913Z,78.86
2018-11-02T05:58:58.365Z,78.69
2018-11-02T06:01:25.876Z,79.01
2018-11-02T06:03:53.331Z,79.13
2018-11-02T06:06:20.871Z,79.21
2018-11-02T06:08:48.489Z,79.16
2018-11-02T06:11:16.762Z,78.99
2018-11-02T06:13:44.219Z,78.79
2018-11-02T06:16:11.657Z,78.63
2018-11-02T06:18:39.113Z,78.44
2018-11-02T06:21:06.675Z,78.40
2018-11-02T06:23:34.125Z,78.29
2018-11-02T06:26:01.616Z,78.11
2018-11-02T06:28:30.319Z,78.02
2018-11-02T06:30:57.762Z,78.17
2018-11-02T06:33:25.213Z,78.17
2018-11-02T06:35:52.684Z,78.25
2018-11-02T06:38:20.157Z,78.78
2018-11-02T06:40:47.783Z,79.08
2018-11-02T06:43:15.576Z,79.28
2018-11-02T06:45:43.043Z,79.26
2018-11-02T06:48:10.504Z,79.36
2018-11-02T06:50:38.018Z,79.49
2018-11-02T06:53:05.460Z,79.48
2018-11-02T06:55:32.919Z,79.48
2018-11-02T06:58:00.413Z,79.28
2018-11-02T07:00:28.012Z,78.99
2018-11-02T07:02:55.377Z,78.81
2018-11-02T07:05:23.041Z,78.83
2018-11-02T07:07:50.627Z,79.02
2018-11-02T07:10:18.044Z,78.70
2018-11-02T07:12:45.539Z,78.59
2018-11-02T07:15:13.403Z,78.31
2018-11-02T07:17:40.951Z,77.92
2018-11-02T07:20:08.391Z,77.64
2018-11-02T07:22:35.833Z,77.74
2018-11-02T07:25:03.493Z,77.50
2018-11-02T07:27:31.060Z,77.25
2018-11-02T07:29:58.516Z,76.83
2018-11-02T07:32:26.110Z,77.21
2018-11-02T07:34:53.701Z,77.57
2018-11-02T07:37:21.101Z,77.61
2018-11-02T07:39:49.391Z,77.33
2018-11-02T07:42:16.885Z,77.01
2018-11-02T07:44:44.354Z,76.48
2018-11-02T07:47:12.068Z,76.50
2018-11-02T07:49:39.736Z,76.42
2018-11-02T07:52:07.285Z,76.45
2018-11-02T07:54:34.749Z,76.73
2018-11-02T07:57:02.203Z,76.75
2018-11-02T07:59:29.692Z,76.32
2018-11-02T08:01:57.220Z,76.06
2018-11-02T08:04:24.608Z,75.95
2018-11-02T08:06:52.071Z,75.84
2018-11-02T08:09:19.537Z,76.06
2018-11-02T08:11:46.985Z,76.58
2018-11-02T08:14:14.571Z,76.67
2018-11-02T08:16:42.021Z,76.70
2018-11-02T08:19:09.525Z,76.39
2018-11-02T08:21:36.937Z,75.78
2018-11-02T08:24:04.392Z,75.46
2018-11-02T08:26:31.953Z,75.35
2018-11-02T08:28:59.395Z,75.32
2018-11-02T08:31:26.901Z,75.33
2018-11-02T08:33:55.062Z,75.15
2018-11-02T08:36:22.532Z,75.06
2018-11-02T08:38:49.991Z,74.68
2018-11-02T08:41:18.160Z,74.48
2018-11-02T08:43:45.600Z,74.33
2018-11-02T08:46:13.270Z,73.71
2018-11-02T08:48:41.149Z,73.36
2018-11-02T08:51:08.623Z,73.31
2018-11-02T08:53:36.081Z,73.08
2018-11-02T08:56:03.551Z,72.67
2018-11-02T08:58:31.315Z,72.54
2018-11-02T09:00:58.608Z,72.53
2018-11-02T09:03:26.058Z,72.39
2018-11-02T09:05:53.546Z,72.51
2018-11-02T09:10:54.882Z,72.71
2018-11-02T09:13:22.496Z,72.76
2018-11-02T09:15:50.025Z,72.75
2018-11-02T09:18:17.496Z,72.64
2018-11-02T09:20:44.945Z,72.38
2018-11-02T09:23:12.469Z,72.41
2018-11-02T09:25:39.914Z,72.45
2018-11-02T09:28:07.554Z,72.37
2018-11-02T09:30:35.349Z,72.22
2018-11-02T09:33:02.815Z,72.48
2018-11-02T09:35:30.273Z,72.54
2018-11-02T09:37:57.736Z,72.52
2018-11-02T09:40:25.293Z,72.30
2018-11-02T09:42:52.700Z,72.22
2018-11-02T09:45:20.285Z,72.32
2018-11-02T09:47:47.757Z,72.22
2018-11-02T09:50:15.197Z,71.88
2018-11-02T09:52:42.682Z,71.79
2018-11-02T09:55:10.250Z,71.40
2018-11-02T09:57:37.781Z,71.19
2018-11-02T10:00:05.239Z,71.25
2018-11-02T10:02:32.769Z,70.65
2018-11-02T10:05:00.742Z,70.39
2018-11-02T10:07:28.336Z,70.26
2018-11-02T10:09:55.811Z,69.91
2018-11-02T10:12:23.332Z,69.58
2018-11-02T10:14:50.789Z,69.55
2018-11-02T10:17:18.247Z,69.53
2018-11-02T10:19:45.697Z,68.75
2018-11-02T10:22:13.144Z,68.76
2018-11-02T10:24:40.622Z,68.48
2018-11-02T10:27:08.063Z,68.24
2018-11-02T10:29:35.593Z,67.62
2018-11-02T10:32:03.141Z,67.34
2018-11-02T10:34:30.738Z,67.29
2018-11-02T10:36:58.275Z,67.05
2018-11-02T10:39:27.016Z,67.18
2018-11-02T10:41:54.442Z,67.78
2018-11-02T10:44:22.024Z,68.11
2018-11-02T10:46:49.404Z,68.29
2018-11-02T10:49:16.948Z,68.09
2018-11-02T10:51:44.599Z,68.13
2018-11-02T10:54:12.123Z,67.97
2018-11-02T10:56:40.122Z,67.47
2018-11-02T10:59:07.666Z,67.18
2018-11-02T11:01:50.147Z,66.81
2018-11-02T11:04:17.667Z,66.37
2018-11-02T11:06:45.590Z,66.01
2018-11-02T11:09:13.042Z,65.82
2018-11-02T11:11:40.659Z,65.35
2018-11-02T11:14:08.001Z,65.17
2018-11-02T11:16:35.488Z,65.12
2018-11-02T11:19:02.955Z,64.78
2018-11-02T11:21:30.556Z,64.49
2018-11-02T11:23:57.890Z,64.40
2018-11-02T11:26:25.345Z,64.06
2018-11-02T11:28:52.805Z,63.25
2018-11-02T11:31:20.263Z,63.70
2018-11-02T11:33:47.782Z,63.55
2018-11-02T11:36:15.254Z,63.48
2018-11-02T11:38:42.747Z,63.35
2018-11-02T11:41:10.202Z,63.47
2018-11-02T11:43:37.687Z,62.95
2018-11-02T11:46:05.142Z,61.67
2018-11-02T11:48:32.739Z,61.88
2018-11-02T11:51:00.128Z,61.73
2018-11-02T11:53:27.599Z,61.70
2018-11-02T11:55:55.076Z,62.52
2018-11-02T11:58:22.542Z,62.58
2018-11-02T12:00:50.097Z,63.01
2018-11-02T12:03:17.549Z,63.18
2018-11-02T12:05:44.997Z,62.93
2018-11-02T12:08:12.509Z,62.10
2018-11-02T12:10:40.033Z,61.97
2018-11-02T12:13:07.490Z,63.05
2018-11-02T12:15:34.944Z,63.46
2018-11-02T12:18:02.420Z,63.24
2018-11-02T12:20:30.006Z,62.77
2018-11-02T12:22:57.644Z,62.71
2018-11-02T12:25:25.327Z,61.90
2018-11-02T12:27:53.240Z,61.88
2018-11-02T12:30:20.685Z,61.65
2018-11-02T12:32:48.169Z,61.34
2018-11-02T12:35:15.771Z,61.00
2018-11-02T12:37:43.260Z,61.06
2018-11-02T12:40:10.714Z,61.61
2018-11-02T12:42:38.272Z,61.79
2018-11-02T12:45:05.730Z,61.03
2018-11-02T12:47:33.204Z,60.86
2018-11-02T12:50:00.808Z,60.67
2018-11-02T12:52:28.236Z,60.01
2018-11-02T12:54:55.699Z,60.04
2018-11-02T12:57:23.197Z,60.14
2018-11-02T12:59:50.627Z,60.33
2018-11-02T13:02:18.350Z,59.57
2018-11-02T13:04:45.829Z,59.38
2018-11-02T13:07:13.313Z,59.66
2018-11-02T13:09:41.020Z,59.17
2018-11-02T13:12:08.570Z,59.14
2018-11-02T13:14:36.079Z,59.25
2018-11-02T13:17:04.601Z,58.84
2018-11-02T13:19:32.055Z,58.95
2018-11-02T13:21:59.712Z,59.83
2018-11-02T13:24:27.083Z,60.57
2018-11-02T13:26:54.561Z,61.09
2018-11-02T13:29:22.088Z,61.20
2018-11-02T13:31:49.717Z,61.19
2018-11-02T13:34:17.043Z,60.63
2018-11-02T13:36:45.657Z,60.22
2018-11-02T13:39:13.159Z,60.26
2018-11-02T13:41:40.667Z,60.27
2018-11-02T13:44:08.242Z,59.64
2018-11-02T13:46:35.731Z,59.68
2018-11-02T13:49:03.213Z,59.69
2018-11-02T13:51:30.697Z,60.14
2018-11-02T13:53:58.151Z,60.11
2018-11-02T13:56:25.611Z,60.05
2018-11-02T13:58:53.179Z,60.13
2018-11-02T14:01:20.791Z,59.86
2018-11-02T14:03:48.241Z,60.17
2018-11-02T14:06:15.814Z,60.49
2018-11-02T14:08:44.331Z,60.88
2018-11-02T14:11:11.763Z,60.96
2018-11-02T14:13:39.421Z,60.97
2018-11-02T14:16:06.867Z,61.23
2018-11-02T14:18:34.417Z,61.19
2018-11-02T14:21:01.859Z,61.11
2018-11-02T14:23:29.375Z,61.37
2018-11-02T14:25:56.895Z,61.62
2018-11-02T14:28:24.367Z,61.71
2018-11-02T14:30:51.810Z,61.89
2018-11-02T14:33:19.293Z,61.73
2018-11-02T14:35:46.840Z,61.62
2018-11-02T14:38:14.314Z,61.32
2018-11-02T14:40:41.851Z,60.94
2018-11-02T14:43:09.302Z,61.22
2018-11-02T14:45:36.752Z,61.50
2018-11-02T14:48:04.302Z,61.47
2018-11-02T14:50:31.736Z,61.75
2018-11-02T14:52:59.188Z,62.10
2018-11-02T14:55:26.923Z,62.58
2018-11-02T14:57:54.534Z,62.88
2018-11-02T15:00:22.743Z,62.75
2018-11-02T15:02:50.317Z,63.05
2018-11-02T15:05:17.898Z,63.65
2018-11-02T15:07:45.362Z,63.67
2018-11-02T15:10:12.815Z,63.92
2018-11-02T15:12:40.251Z,64.33
2018-11-02T15:15:07.714Z,64.49
2018-11-02T15:17:35.751Z,64.53
2018-11-02T15:20:04.277Z,64.65
2018-11-02T15:22:31.861Z,64.48
2018-11-02T15:24:59.330Z,63.73
2018-11-02T15:27:26.957Z,63.64
2018-11-02T15:29:54.493Z,63.68
2018-11-02T15:32:22.045Z,64.25
2018-11-02T15:34:49.503Z,64.58
2018-11-02T15:39:50.882Z,65.45
2018-11-02T15:42:18.383Z,65.63
2018-11-02T15:44:46.311Z,65.91
2018-11-02T15:47:13.783Z,66.23
2018-11-02T15:49:41.307Z,66.49
2018-11-02T15:52:08.758Z,66.85
2018-11-02T15:54:36.299Z,67.17
2018-11-02T15:57:03.795Z,67.11
2018-11-02T15:59:31.379Z,67.35
2018-11-02T16:01:58.870Z,67.54
2018-11-02T16:04:26.476Z,67.42
2018-11-02T16:06:54.024Z,67.59
2018-11-02T16:09:21.474Z,67.58
2018-11-02T16:11:48.914Z,67.52
2018-11-02T16:14:16.454Z,67.49
2018-11-02T16:16:43.876Z,67.67
2018-11-02T16:19:11.332Z,67.86
2018-11-02T16:21:38.833Z,67.99
2018-11-02T16:24:06.346Z,68.29
2018-11-02T16:26:33.783Z,68.34
2018-11-02T16:29:02.506Z,68.51
2018-11-02T16:31:30.028Z,68.82
2018-11-02T16:33:57.507Z,68.92
2018-11-02T16:36:24.939Z,68.88
2018-11-02T16:38:52.420Z,68.96
2018-11-02T16:41:19.874Z,68.89
2018-11-02T16:43:47.518Z,68.85
2018-11-02T16:46:14.977Z,68.89
2018-11-02T16:48:42.637Z,69.03
2018-11-02T16:51:10.114Z,69.07
2018-11-02T16:53:37.580Z,69.01
2018-11-02T16:56:05.093Z,69.19
2018-11-02T16:58:32.652Z,69.24
2018-11-02T17:01:00.160Z,69.11
2018-11-02T17:03:27.782Z,69.24
2018-11-02T17:05:55.281Z,69.19
2018-11-02T17:08:22.729Z,69.22
2018-11-02T17:10:50.283Z,69.27
2018-11-02T17:13:17.742Z,69.12
2018-11-02T17:15:45.202Z,68.81
2018-11-02T17:18:12.684Z,68.58
2018-11-02T17:20:40.302Z,68.59
2018-11-02T17:23:07.807Z,68.49
2018-11-02T17:25:35.273Z,68.33
2018-11-02T17:28:02.822Z,67.94
2018-11-02T17:30:30.345Z,67.74
2018-11-02T17:32:57.969Z,67.46
2018-11-02T17:35:25.531Z,67.20
2018-11-02T17:37:52.987Z,66.87
2018-11-02T17:40:20.451Z,66.63
2018-11-02T17:42:47.920Z,66.67
2018-11-02T17:45:15.392Z,66.45
2018-11-02T17:47:43.385Z,66.35
2018-11-02T17:50:10.743Z,66.16
2018-11-02T17:52:38.238Z,66.26
2018-11-02T17:55:05.693Z,66.10
2018-11-02T17:57:33.258Z,66.08
2018-11-02T18:00:00.819Z,66.00
2018-11-02T18:02:28.362Z,65.88
2018-11-02T18:04:55.864Z,65.85
2018-11-02T18:07:23.308Z,65.80
2018-11-02T18:09:50.786Z,65.70
2018-11-02T18:12:18.412Z,65.47
2018-11-02T18:14:45.847Z,65.34
2018-11-02T18:17:13.305Z,65.19
2018-11-02T18:19:40.792Z,65.07
2018-11-02T18:22:08.263Z,65.23
2018-11-02T18:24:35.851Z,65.03
2018-11-02T18:27:03.363Z,64.87
2018-11-02T18:29:30.919Z,64.75
2018-11-02T18:31:58.890Z,64.96
2018-11-02T18:34:26.372Z,65.00
2018-11-02T18:36:53.884Z,65.09
2018-11-02T18:39:21.355Z,65.32
2018-11-02T18:41:48.904Z,65.34
2018-11-02T18:44:16.375Z,65.74
2018-11-02T18:46:43.859Z,65.93
2018-11-02T18:49:11.328Z,66.00
2018-11-02T18:51:38.856Z,65.92
2018-11-02T18:54:06.512Z,65.39
2018-11-02T18:56:34.492Z,65.38
2018-11-02T18:59:01.949Z,66.25
2018-11-02T19:01:29.386Z,66.43
2018-11-02T19:03:56.966Z,66.72
2018-11-02T19:06:24.440Z,66.89
2018-11-02T19:08:52.037Z,67.19
2018-11-02T19:11:19.582Z,67.35
2018-11-02T19:13:47.038Z,67.59
2018-11-02T19:16:14.523Z,67.87
2018-11-02T19:18:42.541Z,67.81
2018-11-02T19:21:09.991Z,68.04
2018-11-02T19:23:37.521Z,68.15
2018-11-02T19:26:05.006Z,68.32
2018-11-02T19:28:32.526Z,68.52
2018-11-02T19:31:00.080Z,68.59
2018-11-02T19:33:27.536Z,69.09
2018-11-02T19:35:55.081Z,69.52
2018-11-02T19:38:22.649Z,69.70
2018-11-02T19:40:50.083Z,69.63
2018-11-02T19:43:17.632Z,69.60
2018-11-02T19:45:45.151Z,69.87
2018-11-02T19:48:12.668Z,69.99
2018-11-02T19:50:40.266Z,70.16
2018-11-02T19:53:07.619Z,70.22
2018-11-02T19:55:35.124Z,69.93
2018-11-02T19:58:02.583Z,69.93
2018-11-02T20:00:30.058Z,69.96
2018-11-02T20:02:57.588Z,70.06
2018-11-02T20:05:25.138Z,69.87
2018-11-02T20:07:52.640Z,69.78
2018-11-02T20:10:20.219Z,69.84
2018-11-02T20:12:47.667Z,69.94
2018-11-02T20:15:15.129Z,69.91
2018-11-02T20:17:42.686Z,69.92
2018-11-02T20:20:10.131Z,70.16
2018-11-02T20:22:37.659Z,70.33
2018-11-02T20:25:05.198Z,70.44
2018-11-02T20:27:32.642Z,70.44
2018-11-02T20:30:00.091Z,70.28
2018-11-02T20:32:27.657Z,69.90
2018-11-02T20:34:55.137Z,69.39
2018-11-02T20:37:22.614Z,69.09
2018-11-02T20:39:50.075Z,69.46
2018-11-02T20:42:17.613Z,68.82
2018-11-02T20:44:45.090Z,68.72
2018-11-02T20:47:12.706Z,68.54
2018-11-02T20:49:40.908Z,68.54
2018-11-02T20:52:08.360Z,68.54
2018-11-02T20:54:35.812Z,68.28
2018-11-02T20:57:03.480Z,67.86
2018-11-02T20:59:30.967Z,67.97
2018-11-02T21:01:58.554Z,68.05
2018-11-02T21:04:26.052Z,67.63
2018-11-02T21:06:53.535Z,67.46
2018-11-02T21:09:21.373Z,67.28
2018-11-02T21:11:49.530Z,67.08
2018-11-02T21:14:17.936Z,66.90
2018-11-02T21:16:45.380Z,66.58
2018-11-02T21:19:13.021Z,66.46
2018-11-02T21:21:40.470Z,66.30
2018-11-02T21:24:08.082Z,65.76
2018-11-02T21:26:35.527Z,65.82
2018-11-02T21:29:03.053Z,66.02
2018-11-02T21:31:30.497Z,66.34
2018-11-02T21:33:58.165Z,66.69
2018-11-02T21:36:25.527Z,66.67
2018-11-02T21:38:53.154Z,66.69
2018-11-02T21:41:20.567Z,66.65
2018-11-02T21:43:48.055Z,66.63
2018-11-02T21:46:15.522Z,66.72
2018-11-02T21:48:43.019Z,66.95
2018-11-02T21:51:10.539Z,66.68
2018-11-02T21:53:40.510Z,66.64
2018-11-02T21:56:08.051Z,66.45
2018-11-02T21:58:35.632Z,66.51
2018-11-02T22:01:03.875Z,66.47
2018-11-02T22:03:31.345Z,66.63
2018-11-02T22:05:58.914Z,66.48
2018-11-02T22:08:26.452Z,66.68
2018-11-02T22:10:54.016Z,67.00
2018-11-02T22:13:21.471Z,67.17
2018-11-02T22:15:49.102Z,67.31
2018-11-02T22:18:16.561Z,67.53
2018-11-02T22:20:44.003Z,67.71
2018-11-02T22:23:11.665Z,67.84
2018-11-02T22:25:39.459Z,67.77
2018-11-02T22:28:07.095Z,67.65
2018-11-02T22:30:34.583Z,67.75
2018-11-02T22:33:02.099Z,67.77
2018-11-02T22:35:30.171Z,67.86
2018-11-02T22:37:57.724Z,67.89
2018-11-02T22:40:25.179Z,68.01
2018-11-02T22:42:52.641Z,68.18
2018-11-02T22:45:20.295Z,68.25
2018-11-02T22:47:47.811Z,68.39
2018-11-02T22:50:15.301Z,68.58
2018-11-02T22:52:42.992Z,68.60
2018-11-02T22:55:10.832Z,68.57
2018-11-02T22:57:39.061Z,68.75
2018-11-02T23:00:06.513Z,68.83
2018-11-02T23:02:33.955Z,68.92
2018-11-02T23:05:02.021Z,69.29
2018-11-02T23:07:29.498Z,69.36
2018-11-02T23:09:56.926Z,69.70
2018-11-02T23:12:24.589Z,69.80
2018-11-02T23:14:52.318Z,69.97
2018-11-02T23:17:19.797Z,70.14
2018-11-02T23:19:47.365Z,70.41
2018-11-02T23:22:14.812Z,70.60
2018-11-02T23:24:43.801Z,70.76
2018-11-02T23:27:11.292Z,71.02
2018-11-02T23:29:39.475Z,71.13
2018-11-02T23:32:06.879Z,71.36
2018-11-02T23:34:34.592Z,71.38
2018-11-02T23:37:02.173Z,71.30
2018-11-02T23:39:29.729Z,71.27
2018-11-02T23:41:57.249Z,71.17
2018-11-02T23:44:24.987Z,71.13
2018-11-02T23:46:52.548Z,71.18
2018-11-02T23:49:20.018Z,70.78
2018-11-02T23:51:47.461Z,70.66
2018-11-02T23:54:15.529Z,70.40
2018-11-02T23:56:42.982Z,70.32
2018-11-02T23:59:10.459Z,70.41
